Springville, Alabama
Current Conditions -  °F | °C
As of 6:53 PM on Tuesday 27 Jan 2015 (Local Time) from KBHM Reporting Station
Clear Clear  
Wind Chill: 36°   Ceiling: Unl
Heat Index: 40°   Visibility: 10mi
Dew Point: 30°   Wind: 6mph
Humidity: 68%   Direction: 350°N
Pressure: 30.12"   Gusts: NA
Location:  33.78°N, 86.47°W
Report Text: KBHM 280053Z 35005KT 10SM CLR 04/M01 A3012 RMK AO2 SLP203 T00441011
Loading
Personal Weather Stations






























Interactive Weather Map New forecast layout! Learn more

10-Day Weather Forecast

Advertisements
Track Severe Weather on mobile